Time;durP1;ratioP1;P1;durP2;ratioP2;P2;SDS_P1;SDS_P2;PMS_P1;PMS_P2;Temp;Humidity;BMP_temperature;BMP_pressure;BME280_temperature;BME280_humidity;BME280_pressure;Samples;Min_cycle;Max_cycle;Signal;HPM_P1;HPM_P2
2023/01/24 00:00:19;;;;;;;;;20.75;18.00;24.50;43.80;;;;;;112790;1243;49040;-72
2023/01/24 00:03:11;;;;;;;;;25.00;23.00;24.50;43.80;;;;;;112791;1242;51605;-72
2023/01/24 00:05:40;;;;;;;;;26.50;22.25;24.50;43.80;;;;;;112784;1243;45320;-72
2023/01/24 00:08:07;;;;;;;;;24.33;22.33;24.50;43.70;;;;;;112773;1242;56014;-72
2023/01/24 00:10:34;;;;;;;;;21.25;19.75;24.60;43.80;;;;;;112766;1243;56558;-72
2023/01/24 00:13:02;;;;;;;;;23.50;21.50;24.60;43.80;;;;;;112804;1241;50187;-72
2023/01/24 00:15:29;;;;;;;;;24.50;22.75;24.60;44.40;;;;;;112781;1242;49112;-72
2023/01/24 00:17:56;;;;;;;;;25.75;21.25;24.50;43.80;;;;;;112672;1238;150042;-71
2023/01/24 00:20:23;;;;;;;;;24.00;23.50;24.50;43.80;;;;;;112814;1242;56224;-71
2023/01/24 00:22:51;;;;;;;;;21.25;20.00;24.50;43.80;;;;;;112759;1242;55392;-71
2023/01/24 00:25:18;;;;;;;;;22.67;19.00;24.50;43.80;;;;;;112756;1242;49318;-72
2023/01/24 00:27:44;;;;;;;;;26.50;24.75;24.50;43.90;;;;;;112754;1238;49735;-72
2023/01/24 00:30:11;;;;;;;;;23.25;21.00;24.50;43.90;;;;;;112779;1243;44432;-72
2023/01/24 00:32:38;;;;;;;;;24.25;21.25;24.50;43.90;;;;;;112753;1242;55823;-72
2023/01/24 00:35:06;;;;;;;;;24.50;20.50;24.50;43.90;;;;;;112749;1238;55679;-72
2023/01/24 00:37:32;;;;;;;;;20.25;17.25;24.50;43.90;;;;;;112775;1239;50175;-71
2023/01/24 00:39:59;;;;;;;;;21.50;20.25;24.50;43.80;;;;;;112720;1242;49270;-72
2023/01/24 00:42:26;;;;;;;;;19.50;17.25;24.50;43.90;;;;;;112762;1242;45091;-71
2023/01/24 00:44:53;;;;;;;;;18.25;16.25;24.50;43.80;;;;;;112756;1243;55850;-71
2023/01/24 00:47:20;;;;;;;;;17.00;15.25;24.50;44.40;;;;;;112775;1243;56115;-71
2023/01/24 00:49:47;;;;;;;;;22.00;17.75;24.50;43.80;;;;;;112762;1243;50513;-71
2023/01/24 00:52:14;;;;;;;;;19.00;16.75;24.50;43.80;;;;;;112758;1242;49112;-71
2023/01/24 00:54:41;;;;;;;;;19.25;16.25;24.50;44.40;;;;;;112786;1240;44861;-71
2023/01/24 00:57:08;;;;;;;;;22.50;21.25;24.50;43.80;;;;;;112786;1242;56936;-72
2023/01/24 00:59:37;;;;;;;;;22.25;20.50;24.50;43.80;;;;;;112751;1238;55749;-72
2023/01/24 01:02:04;;;;;;;;;25.75;22.50;24.60;44.10;;;;;;112749;1242;49958;-70
2023/01/24 01:04:31;;;;;;;;;27.00;24.75;24.60;43.80;;;;;;112767;1238;49559;-71
2023/01/24 01:06:58;;;;;;;;;23.75;22.00;24.60;43.80;;;;;;112725;1242;45985;-71
2023/01/24 01:09:25;;;;;;;;;26.75;23.50;24.60;43.80;;;;;;112766;1242;56933;-69
2023/01/24 01:11:52;;;;;;;;;23.75;22.50;24.60;43.70;;;;;;112763;1243;56350;-71
2023/01/24 01:14:18;;;;;;;;;24.50;23.50;24.60;43.70;;;;;;112756;1243;49529;-71
2023/01/24 01:16:45;;;;;;;;;28.00;25.50;24.60;43.70;;;;;;112795;1238;49213;-70
2023/01/24 01:19:12;;;;;;;;;23.50;20.75;24.60;43.70;;;;;;112776;1242;44799;-71
2023/01/24 01:21:39;;;;;;;;;22.00;19.50;24.60;43.70;;;;;;112788;1242;55958;-71
2023/01/24 01:24:06;;;;;;;;;32.25;25.00;24.60;43.70;;;;;;112760;1238;56267;-71
2023/01/24 01:26:33;;;;;;;;;24.00;21.50;24.60;43.60;;;;;;112761;1243;49279;-71
2023/01/24 01:29:00;;;;;;;;;24.00;22.33;24.60;43.60;;;;;;112769;1238;48922;-71
2023/01/24 01:31:27;;;;;;;;;24.00;22.75;24.60;43.80;;;;;;112799;1238;44535;-70
2023/01/24 01:33:55;;;;;;;;;25.25;22.00;24.60;43.60;;;;;;112757;1242;56520;-71
2023/01/24 01:36:22;;;;;;;;;24.50;19.75;24.60;43.50;;;;;;112767;1243;57033;-71
2023/01/24 01:38:48;;;;;;;;;25.75;23.50;24.60;43.50;;;;;;112775;1238;49709;-71
2023/01/24 01:41:15;;;;;;;;;26.50;25.00;24.60;44.00;;;;;;112826;1238;49419;-71
2023/01/24 01:44:37;;;;;;;;;26.25;24.50;24.60;43.50;;;;;;112808;1243;45096;-71
2023/01/24 01:46:44;;;;;;;;;26.33;22.33;24.60;43.40;;;;;;112846;1242;55211;-71
2023/01/24 01:49:19;;;;;;;;;27.75;24.50;24.60;43.40;;;;;;112827;1243;55161;-71
2023/01/24 01:51:48;;;;;;;;;25.00;22.75;24.60;43.30;;;;;;112799;1242;49411;-72
2023/01/24 01:54:26;;;;;;;;;23.75;21.00;24.60;43.20;;;;;;112760;1238;49816;-72
2023/01/24 01:57:05;;;;;;;;;26.50;22.00;24.70;43.50;;;;;;112807;1238;44547;-72
2023/01/24 01:59:36;;;;;;;;;26.25;25.25;24.70;43.30;;;;;;112807;1242;57003;-72
2023/01/24 02:02:04;;;;;;;;;22.00;21.00;24.60;43.10;;;;;;112771;1242;56062;-72
2023/01/24 02:04:39;;;;;;;;;29.25;26.00;24.60;43.10;;;;;;112768;1240;49071;-71
2023/01/24 02:07:11;;;;;;;;;25.00;24.00;24.70;43.20;;;;;;112773;1239;49752;-71
2023/01/24 02:09:41;;;;;;;;;28.33;27.00;24.60;43.10;;;;;;112772;1243;45109;-71
2023/01/24 02:12:13;;;;;;;;;21.67;20.00;24.60;43.30;;;;;;112761;1238;55251;-71
2023/01/24 02:17:25;;;;;;;;;24.67;23.33;24.60;43.10;;;;;;112780;1242;49862;-71
2023/01/24 02:20:32;;;;;;;;;23.75;21.25;24.60;43.10;;;;;;112759;1240;49151;-71
2023/01/24 02:23:11;;;;;;;;;25.00;23.50;24.60;43.10;;;;;;112636;1242;44687;-71
2023/01/24 02:25:44;;;;;;;;;24.00;22.75;24.60;43.10;;;;;;112769;1242;56136;-71
2023/01/24 02:28:11;;;;;;;;;24.75;23.00;24.60;43.10;;;;;;112746;1238;56065;-71
2023/01/24 02:30:38;;;;;;;;;24.00;19.75;24.60;43.10;;;;;;112770;1242;49201;-70
2023/01/24 02:33:17;;;;;;;;;24.50;19.00;24.60;43.10;;;;;;112775;1243;50095;-71
2023/01/24 02:35:45;;;;;;;;;19.50;17.75;24.60;43.10;;;;;;112763;1242;45979;-71
2023/01/24 02:38:22;;;;;;;;;25.33;21.33;24.60;43.20;;;;;;112821;1241;56835;-71
2023/01/24 02:40:53;;;;;;;;;21.00;19.25;24.60;43.10;;;;;;112794;1243;56022;-71
2023/01/24 02:43:22;;;;;;;;;19.75;18.25;24.60;43.20;;;;;;112774;1242;49728;-72
2023/01/24 02:45:49;;;;;;;;;24.50;21.50;24.60;43.20;;;;;;112762;1238;49299;-72
2023/01/24 02:48:16;;;;;;;;;20.00;17.00;24.60;43.20;;;;;;112785;1238;45253;-72
2023/01/24 02:53:29;;;;;;;;;21.25;20.00;24.60;43.20;;;;;;112775;1243;56115;-71
2023/01/24 02:58:43;;;;;;;;;17.00;14.00;24.60;43.30;;;;;;112779;1242;48901;-71
2023/01/24 03:01:11;;;;;;;;;17.25;14.75;24.60;43.30;;;;;;112786;1242;45325;-71
2023/01/24 03:03:38;;;;;;;;;19.25;16.75;24.60;43.30;;;;;;112781;1243;56493;-69
2023/01/24 03:06:05;;;;;;;;;19.00;17.75;24.60;43.30;;;;;;112763;1243;55207;-70
2023/01/24 03:08:33;;;;;;;;;22.75;19.50;24.60;43.30;;;;;;112793;1242;49166;-71
2023/01/24 03:11:01;;;;;;;;;23.50;19.25;24.60;43.30;;;;;;112734;1242;49278;-72
2023/01/24 03:35:35;;;;;;;;;23.50;21.25;24.60;42.30;;;;;;112775;1242;49540;-71
2023/01/24 03:40:51;;;;;;;;;24.00;20.50;24.60;42.10;;;;;;112757;1242;44870;-72
2023/01/24 03:43:18;;;;;;;;;22.25;20.00;24.60;42.10;;;;;;112768;1242;56075;-73
2023/01/24 03:45:45;;;;;;;;;20.25;19.00;24.60;41.90;;;;;;112888;1238;55822;-72
2023/01/24 03:48:14;;;;;;;;;23.00;21.00;24.60;41.80;;;;;;112760;1243;49600;-72
2023/01/24 03:53:30;;;;;;;;;27.25;24.00;24.60;41.60;;;;;;112773;1243;44613;-73
2023/01/24 03:55:59;;;;;;;;;23.75;20.50;24.60;41.60;;;;;;112773;1243;56688;-73
2023/01/24 03:58:27;;;;;;;;;23.00;21.75;24.60;41.40;;;;;;112756;1238;55733;-73
2023/01/24 04:00:55;;;;;;;;;27.25;23.25;24.60;41.30;;;;;;112771;1242;49676;-72
2023/01/24 04:03:22;;;;;;;;;25.25;23.00;24.60;41.30;;;;;;112785;1242;49901;-72
2023/01/24 04:05:50;;;;;;;;;22.75;20.25;24.60;41.20;;;;;;112621;1242;45662;-72
2023/01/24 04:08:17;;;;;;;;;25.50;24.25;24.60;41.10;;;;;;112783;1238;55520;-72
2023/01/24 04:10:45;;;;;;;;;20.00;18.75;24.60;41.00;;;;;;112764;1242;55659;-72
2023/01/24 04:13:11;;;;;;;;;24.25;21.00;24.50;40.90;;;;;;112759;1238;49271;-72
2023/01/24 04:15:39;;;;;;;;;23.00;19.75;24.60;41.10;;;;;;112889;1242;49682;-72
2023/01/24 04:18:06;;;;;;;;;25.25;20.50;24.50;40.70;;;;;;112773;1242;45319;-72
2023/01/24 04:20:36;;;;;;;;;28.75;23.50;24.50;40.60;;;;;;112754;1242;55833;-72
2023/01/24 04:23:06;;;;;;;;;20.00;18.50;24.50;40.50;;;;;;112791;1242;56176;-72
2023/01/24 04:25:34;;;;;;;;;25.75;22.75;24.50;40.50;;;;;;112780;1242;49242;-72
2023/01/24 04:28:01;;;;;;;;;20.50;19.00;24.50;40.50;;;;;;112766;1244;49260;-71
2023/01/24 04:30:29;;;;;;;;;23.50;21.75;24.50;40.50;;;;;;112815;1243;45099;-72
2023/01/24 04:32:56;;;;;;;;;27.75;23.00;24.50;40.50;;;;;;112820;1242;57001;-72
2023/01/24 04:35:29;;;;;;;;;21.50;18.50;24.50;40.60;;;;;;112809;1238;55270;-72
2023/01/24 04:38:00;;;;;;;;;18.75;15.75;24.50;40.70;;;;;;112797;1243;49569;-72
2023/01/24 04:40:27;;;;;;;;;20.50;17.75;24.50;40.70;;;;;;112830;1243;49789;-71
2023/01/24 04:42:56;;;;;;;;;18.50;16.75;24.50;40.80;;;;;;112767;1242;45201;-72
2023/01/24 04:45:24;;;;;;;;;19.00;17.00;24.50;40.80;;;;;;112781;1243;56308;-73
2023/01/24 04:47:53;;;;;;;;;23.00;20.00;24.50;40.90;;;;;;112884;1238;56230;-71
2023/01/24 04:50:20;;;;;;;;;22.00;19.00;24.50;40.90;;;;;;112749;1239;50425;-71
2023/01/24 04:52:47;;;;;;;;;25.50;21.00;24.50;40.90;;;;;;112765;1242;50475;-72
2023/01/24 04:55:14;;;;;;;;;21.25;18.50;24.50;40.90;;;;;;112798;1239;45790;-71
2023/01/24 04:57:41;;;;;;;;;19.75;17.75;24.50;41.00;;;;;;112748;1244;55868;-72
2023/01/24 05:00:09;;;;;;;;;19.50;18.00;24.50;40.70;;;;;;112783;1243;56154;-72
2023/01/24 05:02:37;;;;;;;;;20.00;18.75;24.50;41.20;;;;;;112775;1243;49720;-71
2023/01/24 05:05:05;;;;;;;;;23.00;19.75;24.50;41.20;;;;;;112766;1243;50396;-72
2023/01/24 05:07:32;;;;;;;;;19.75;17.00;24.50;41.20;;;;;;112783;1242;45850;-72
2023/01/24 05:09:59;;;;;;;;;20.00;19.00;24.50;41.20;;;;;;112777;1244;56579;-72
2023/01/24 05:12:26;;;;;;;;;23.00;17.50;24.50;41.20;;;;;;112762;1239;56123;-73
2023/01/24 05:14:53;;;;;;;;;22.00;17.00;24.50;41.20;;;;;;112761;1243;48994;-71
2023/01/24 05:17:20;;;;;;;;;20.00;17.00;24.50;41.30;;;;;;112761;1241;49363;-70
2023/01/24 05:19:47;;;;;;;;;18.50;16.00;24.50;41.30;;;;;;112758;1243;45701;-71
2023/01/24 05:22:14;;;;;;;;;17.75;16.00;24.50;41.30;;;;;;112755;1240;56017;-68
2023/01/24 05:24:41;;;;;;;;;20.00;18.67;24.50;41.40;;;;;;112747;1243;55283;-70
2023/01/24 05:27:08;;;;;;;;;18.00;16.00;24.50;41.60;;;;;;112753;1243;49553;-69
2023/01/24 05:29:35;;;;;;;;;18.75;17.75;24.50;41.40;;;;;;112718;1243;48839;-70
2023/01/24 05:32:02;;;;;;;;;20.00;18.75;24.50;41.40;;;;;;112755;1241;44801;-69
2023/01/24 05:34:29;;;;;;;;;21.75;19.25;24.50;41.60;;;;;;112775;1243;55590;-70
2023/01/24 05:36:56;;;;;;;;;24.00;20.50;24.50;41.40;;;;;;112773;1243;55677;-73
2023/01/24 05:39:23;;;;;;;;;24.75;21.75;24.50;41.40;;;;;;112769;1243;50397;-71
2023/01/24 05:41:50;;;;;;;;;21.50;20.25;24.50;41.40;;;;;;112743;1243;49666;-70
2023/01/24 05:44:17;;;;;;;;;19.00;17.33;24.50;41.50;;;;;;112783;1239;45411;-71
2023/01/24 05:46:43;;;;;;;;;22.00;19.00;24.50;41.50;;;;;;112777;1243;56393;-69
2023/01/24 05:49:10;;;;;;;;;18.50;17.00;24.50;41.50;;;;;;112763;1243;55830;-69
2023/01/24 05:51:37;;;;;;;;;16.25;15.00;24.50;41.60;;;;;;112721;1243;49781;-69
2023/01/24 05:54:04;;;;;;;;;18.50;17.00;24.50;41.60;;;;;;112760;1243;50090;-69
2023/01/24 05:56:31;;;;;;;;;24.00;21.50;24.50;41.50;;;;;;112762;1243;45317;-61
2023/01/24 05:59:00;;;;;;;;;31.75;24.50;24.60;41.50;;;;;;112789;1243;56499;-61
2023/01/24 06:01:27;;;;;;;;;30.67;25.33;24.60;41.10;;;;;;112757;1243;56684;-69
2023/01/24 06:03:54;;;;;;;;;28.50;22.00;24.60;40.90;;;;;;112739;1243;49519;-64
2023/01/24 06:06:23;;;;;;;;;26.75;25.00;24.60;41.00;;;;;;112754;1240;49144;-68
2023/01/24 06:08:51;;;;;;;;;29.75;23.50;24.70;41.20;;;;;;112755;1242;45966;-68
2023/01/24 06:11:21;;;;;;;;;41.50;30.50;24.70;41.00;;;;;;112738;1242;55334;-71
2023/01/24 06:13:49;;;;;;;;;43.00;31.75;24.70;41.30;;;;;;112714;1243;56580;-67
2023/01/24 06:16:18;;;;;;;;;41.00;30.75;24.70;39.00;;;;;;112731;1242;49035;-69
2023/01/24 06:18:46;;;;;;;;;42.00;28.25;24.80;39.30;;;;;;112755;1242;50142;-69
2023/01/24 06:21:45;;;;;;;;;33.67;29.00;24.80;38.40;;;;;;112787;1242;45544;-68
2023/01/24 06:24:21;;;;;;;;;31.00;28.25;24.80;37.60;;;;;;112809;1242;56013;-64
2023/01/24 06:26:51;;;;;;;;;33.50;27.75;24.70;37.30;;;;;;112740;1238;56178;-64
2023/01/24 06:29:20;;;;;;;;;30.50;27.75;24.60;37.00;;;;;;112769;1243;49339;-64
2023/01/24 06:32:08;;;;;;;;;37.75;31.75;24.60;36.90;;;;;;112833;1242;49038;-64
2023/01/24 06:34:58;;;;;;;;;34.00;28.00;24.50;36.70;;;;;;112805;1243;45075;-64
2023/01/24 06:37:49;;;;;;;;;28.50;27.00;24.50;36.60;;;;;;112486;1242;56504;-64
2023/01/24 06:40:20;;;;;;;;;31.00;27.00;24.50;36.40;;;;;;112624;1243;55471;-64
2023/01/24 06:42:48;;;;;;;;;36.50;30.50;24.50;36.10;;;;;;112766;1242;49234;-63
2023/01/24 06:45:16;;;;;;;;;35.25;32.00;24.50;35.40;;;;;;112781;1243;49436;-64
2023/01/24 06:47:43;;;;;;;;;29.00;27.00;24.40;35.60;;;;;;112799;1242;44879;-64
2023/01/24 06:50:15;;;;;;;;;30.25;27.75;24.40;35.60;;;;;;112774;1242;55994;-64
2023/01/24 06:52:45;;;;;;;;;36.75;32.50;24.40;35.40;;;;;;112751;1238;55822;-64
2023/01/24 06:55:13;;;;;;;;;35.75;31.25;24.40;35.20;;;;;;112777;1238;50498;-63
2023/01/24 06:57:40;;;;;;;;;37.75;32.50;24.30;35.00;;;;;;112745;1239;49891;-62
2023/01/24 07:00:08;;;;;;;;;36.25;31.50;24.30;34.80;;;;;;112793;1238;44705;-63
2023/01/24 07:02:35;;;;;;;;;38.75;31.75;24.30;34.70;;;;;;112779;1242;56233;-63
2023/01/24 07:05:02;;;;;;;;;34.00;29.75;24.20;34.50;;;;;;112747;1238;55880;-64
2023/01/24 07:07:29;;;;;;;;;35.25;31.50;24.20;34.40;;;;;;112776;1239;50643;-63
2023/01/24 07:09:56;;;;;;;;;41.25;35.00;24.20;34.40;;;;;;112771;1242;49565;-63
2023/01/24 07:12:23;;;;;;;;;35.50;31.50;24.20;34.30;;;;;;112765;1238;45189;-63
2023/01/24 07:14:50;;;;;;;;;33.33;31.33;24.10;34.10;;;;;;112792;1242;56685;-63
2023/01/24 07:17:17;;;;;;;;;32.25;29.25;24.10;34.00;;;;;;112784;1238;55663;-63
2023/01/24 07:19:45;;;;;;;;;33.00;31.00;24.10;34.00;;;;;;112768;1242;49918;-63
2023/01/24 07:22:13;;;;;;;;;36.50;31.25;24.00;33.90;;;;;;112789;1238;50730;-63
2023/01/24 07:24:41;;;;;;;;;32.50;28.75;24.00;33.90;;;;;;112775;1242;44589;-64
2023/01/24 07:27:09;;;;;;;;;34.50;31.75;24.00;33.80;;;;;;112768;1243;56676;-63
2023/01/24 07:29:36;;;;;;;;;40.50;31.00;24.00;33.70;;;;;;112773;1242;56333;-64
2023/01/24 07:32:03;;;;;;;;;37.25;29.75;24.00;34.20;;;;;;112788;1238;49366;-64
2023/01/24 07:34:30;;;;;;;;;35.50;30.50;24.00;33.70;;;;;;112766;1242;49514;-63
2023/01/24 07:36:57;;;;;;;;;39.00;31.75;23.90;33.60;;;;;;112863;1242;45215;-64
2023/01/24 07:39:27;;;;;;;;;37.25;33.00;23.90;33.70;;;;;;112852;1242;56955;-64
2023/01/24 07:41:54;;;;;;;;;32.00;29.75;23.90;33.70;;;;;;112820;1240;55355;-65
2023/01/24 07:44:21;;;;;;;;;33.75;30.50;23.90;33.70;;;;;;112776;1242;50023;-64
2023/01/24 07:46:48;;;;;;;;;43.25;36.25;23.80;33.50;;;;;;112771;1242;50052;-64
2023/01/24 07:49:15;;;;;;;;;30.50;27.25;23.80;33.50;;;;;;112787;1242;44666;-65
2023/01/24 07:51:44;;;;;;;;;36.00;30.00;23.80;33.60;;;;;;112779;1238;55270;-65
2023/01/24 07:54:11;;;;;;;;;35.75;31.00;23.80;33.60;;;;;;112808;1242;56228;-64
2023/01/24 07:56:38;;;;;;;;;35.25;30.75;23.80;33.60;;;;;;112798;1238;49687;-64
2023/01/24 07:59:05;;;;;;;;;34.00;30.00;23.80;33.80;;;;;;112782;1240;49817;-64
2023/01/24 08:01:32;;;;;;;;;36.25;30.25;23.70;33.60;;;;;;112771;1243;44562;-64
2023/01/24 08:03:59;;;;;;;;;35.00;29.75;23.70;33.60;;;;;;112837;1242;56042;-64
2023/01/24 08:06:26;;;;;;;;;40.00;33.00;23.70;34.10;;;;;;112832;1242;56145;-64
2023/01/24 08:08:53;;;;;;;;;33.50;30.00;23.70;33.60;;;;;;112800;1242;49246;-63
2023/01/24 08:11:21;;;;;;;;;34.75;30.75;23.60;33.60;;;;;;112764;1242;49475;-62
2023/01/24 08:13:50;;;;;;;;;36.50;30.75;23.60;33.60;;;;;;112780;1242;45147;-64
2023/01/24 08:16:17;;;;;;;;;35.00;32.00;23.60;33.60;;;;;;112824;1242;56428;-65
2023/01/24 08:18:44;;;;;;;;;36.25;32.25;23.60;33.60;;;;;;112806;1238;56467;-64
2023/01/24 08:21:11;;;;;;;;;33.50;30.75;23.60;33.60;;;;;;112842;1238;49535;-65
2023/01/24 08:23:38;;;;;;;;;39.50;33.50;23.60;33.70;;;;;;112936;1242;50493;-63
2023/01/24 08:26:06;;;;;;;;;42.25;34.25;23.60;33.80;;;;;;112850;1242;45620;-69
2023/01/24 08:28:33;;;;;;;;;34.25;30.50;23.60;34.40;;;;;;112853;1238;56776;-70
2023/01/24 08:31:00;;;;;;;;;36.25;30.25;23.50;34.60;;;;;;112824;1242;55310;-71
2023/01/24 08:33:27;;;;;;;;;30.50;27.25;23.50;34.80;;;;;;112832;1238;49263;-63
2023/01/24 08:35:54;;;;;;;;;32.75;28.75;23.50;35.00;;;;;;112818;1243;50450;-61
2023/01/24 08:38:22;;;;;;;;;34.50;30.25;23.50;35.20;;;;;;112882;1238;44606;-63
2023/01/24 08:40:49;;;;;;;;;40.25;34.25;23.50;35.20;;;;;;112849;1242;55901;-63
2023/01/24 08:43:17;;;;;;;;;37.50;33.00;23.50;34.90;;;;;;112860;1242;56058;-64
2023/01/24 08:45:44;;;;;;;;;36.25;29.50;23.50;34.80;;;;;;112865;1242;49083;-63
2023/01/24 08:48:11;;;;;;;;;37.50;31.25;23.50;34.80;;;;;;112871;1238;49993;-68
2023/01/24 08:50:38;;;;;;;;;39.50;33.00;23.50;35.00;;;;;;112849;1242;45028;-63
2023/01/24 08:53:05;;;;;;;;;35.25;31.50;23.50;34.70;;;;;;112835;1242;55813;-68
2023/01/24 08:55:32;;;;;;;;;40.50;33.00;23.50;34.60;;;;;;112809;1242;56963;-66
2023/01/24 08:58:01;;;;;;;;;35.00;32.50;23.50;34.20;;;;;;112782;1243;49695;-64
2023/01/24 09:00:29;;;;;;;;;36.00;32.75;23.50;34.00;;;;;;112776;1241;49417;-67
2023/01/24 09:03:00;;;;;;;;;39.50;32.75;23.50;34.20;;;;;;112794;1240;45887;-65
2023/01/24 09:05:28;;;;;;;;;38.50;33.25;23.50;34.20;;;;;;112828;1243;56120;-64
2023/01/24 09:07:56;;;;;;;;;41.25;33.75;23.50;34.20;;;;;;112823;1242;55862;-66
2023/01/24 09:10:23;;;;;;;;;35.50;32.00;23.50;34.90;;;;;;112833;1242;48963;-65
2023/01/24 09:12:50;;;;;;;;;34.25;30.25;23.50;34.90;;;;;;112784;1242;49150;-65
2023/01/24 09:15:17;;;;;;;;;36.00;30.67;23.50;35.10;;;;;;112799;1238;44295;-65
2023/01/24 09:17:44;;;;;;;;;34.67;31.00;23.50;35.30;;;;;;112806;1241;55402;-67
2023/01/24 09:20:11;;;;;;;;;35.25;30.00;23.50;35.40;;;;;;112783;1242;56285;-66
2023/01/24 09:22:38;;;;;;;;;36.75;30.50;23.50;35.60;;;;;;112782;1238;49809;-63
2023/01/24 09:25:07;;;;;;;;;36.00;31.50;23.50;35.70;;;;;;112802;1243;49278;-62
2023/01/24 09:27:40;;;;;;;;;41.75;32.25;23.50;35.80;;;;;;112801;1242;44979;-65
2023/01/24 09:30:09;;;;;;;;;38.50;33.25;23.50;36.00;;;;;;112766;1242;55251;-63
2023/01/24 09:32:37;;;;;;;;;34.25;30.25;23.50;36.00;;;;;;112783;1242;55796;-64
2023/01/24 09:35:05;;;;;;;;;34.67;30.33;23.50;36.10;;;;;;112780;1238;48895;-63
2023/01/24 09:37:31;;;;;;;;;32.75;29.25;23.50;36.20;;;;;;112774;1243;50432;-65
2023/01/24 09:39:59;;;;;;;;;30.25;27.75;23.50;36.30;;;;;;112781;1243;44915;-65
2023/01/24 09:42:45;;;;;;;;;33.50;28.50;23.50;36.30;;;;;;112795;1242;55306;-65
2023/01/24 09:45:24;;;;;;;;;33.00;29.67;23.50;36.40;;;;;;112814;1242;56921;-64
2023/01/24 09:47:57;;;;;;;;;34.00;29.33;23.50;36.50;;;;;;112856;1242;50158;-64
2023/01/24 09:50:38;;;;;;;;;32.75;29.25;23.50;36.50;;;;;;112838;1243;49592;-63
2023/01/24 09:53:19;;;;;;;;;35.00;30.00;23.50;37.10;;;;;;112838;1242;44508;-64
2023/01/24 09:55:47;;;;;;;;;37.75;32.50;23.50;36.60;;;;;;112826;1242;56629;-64
2023/01/24 09:58:31;;;;;;;;;31.25;29.50;23.50;36.70;;;;;;112845;1242;55726;-64
2023/01/24 10:01:07;;;;;;;;;35.25;30.00;23.50;36.70;;;;;;112829;1240;49405;-63
2023/01/24 10:03:34;;;;;;;;;30.00;27.75;23.50;36.80;;;;;;112858;1242;49177;-64
2023/01/24 10:06:32;;;;;;;;;28.25;27.00;23.50;36.80;;;;;;112853;1244;44527;-64
2023/01/24 10:09:22;;;;;;;;;27.00;25.75;23.50;36.80;;;;;;112872;1242;55250;-64
2023/01/24 10:11:58;;;;;;;;;33.50;31.00;23.50;36.90;;;;;;112843;1238;55719;-64
2023/01/24 10:14:34;;;;;;;;;35.25;29.25;23.60;36.90;;;;;;112865;1240;50015;-62
2023/01/24 10:17:13;;;;;;;;;38.25;31.50;23.60;36.90;;;;;;112823;1238;48924;-63
2023/01/24 10:19:50;;;;;;;;;30.25;28.75;23.60;36.90;;;;;;112815;1242;45195;-64
2023/01/24 10:22:38;;;;;;;;;33.00;28.00;23.60;37.00;;;;;;112775;1238;56102;-63
2023/01/24 10:25:24;;;;;;;;;29.50;26.50;23.60;37.00;;;;;;112791;1242;55650;-64
2023/01/24 10:27:54;;;;;;;;;28.00;23.75;23.60;37.10;;;;;;112836;1242;49899;-63
2023/01/24 10:30:34;;;;;;;;;28.50;27.00;23.60;37.20;;;;;;112827;1242;49317;-65
2023/01/24 10:33:03;;;;;;;;;30.50;26.25;23.60;37.20;;;;;;112779;1243;45246;-64
2023/01/24 10:35:43;;;;;;;;;26.00;23.50;23.60;37.20;;;;;;112787;1242;56172;-65
2023/01/24 10:38:14;;;;;;;;;29.75;28.00;23.60;37.20;;;;;;112760;1243;55757;-64
2023/01/24 10:40:57;;;;;;;;;31.67;29.33;23.60;37.40;;;;;;112788;1240;49844;-64
2023/01/24 10:43:28;;;;;;;;;29.50;28.00;23.60;37.20;;;;;;112769;1241;50400;-64
2023/01/24 10:45:54;;;;;;;;;27.50;24.25;23.60;37.30;;;;;;112775;1243;44544;-64
2023/01/24 10:48:38;;;;;;;;;29.33;25.33;23.60;37.30;;;;;;112780;1242;55982;-64
2023/01/24 10:51:16;;;;;;;;;31.25;27.75;23.60;37.60;;;;;;112780;1242;56115;-64
2023/01/24 10:53:44;;;;;;;;;32.25;27.75;23.60;37.40;;;;;;112782;1238;50197;-64
2023/01/24 10:56:14;;;;;;;;;30.50;27.00;23.70;37.50;;;;;;112773;1238;49458;-64
2023/01/24 10:58:44;;;;;;;;;34.50;28.25;23.60;37.40;;;;;;112780;1242;45665;-64
2023/01/24 11:01:18;;;;;;;;;27.33;25.67;23.70;37.50;;;;;;112780;1242;57034;-64
2023/01/24 11:03:47;;;;;;;;;28.00;24.33;23.70;37.60;;;;;;112769;1243;56603;-64
2023/01/24 11:06:33;;;;;;;;;26.50;25.00;23.70;37.60;;;;;;112733;1243;49318;-64
2023/01/24 11:09:20;;;;;;;;;27.25;23.75;23.70;37.60;;;;;;112589;1240;48944;-64
2023/01/24 11:11:51;;;;;;;;;26.25;25.25;23.70;37.60;;;;;;112780;1243;45026;-64
2023/01/24 11:14:27;;;;;;;;;32.00;27.25;23.70;37.50;;;;;;112768;1239;56723;-63
2023/01/24 11:16:56;;;;;;;;;30.50;25.50;23.80;37.60;;;;;;112756;1243;55799;-63
2023/01/24 11:19:42;;;;;;;;;34.25;27.50;23.80;37.70;;;;;;112774;1243;49672;-64
2023/01/24 11:22:21;;;;;;;;;26.67;23.67;23.80;37.70;;;;;;112751;1243;48918;-64
2023/01/24 11:24:48;;;;;;;;;29.75;27.00;23.80;37.70;;;;;;112792;1243;45658;-64
2023/01/24 11:27:20;;;;;;;;;28.75;24.25;23.80;37.70;;;;;;112601;1241;56362;-64
2023/01/24 11:30:15;;;;;;;;;30.75;24.00;23.80;37.80;;;;;;112774;1243;55577;-63
2023/01/24 11:32:48;;;;;;;;;25.50;24.25;23.80;37.80;;;;;;112604;1240;48950;-64
2023/01/24 11:35:50;;;;;;;;;30.25;27.50;23.90;37.90;;;;;;112784;1243;50415;-63
2023/01/24 11:38:40;;;;;;;;;27.50;25.00;23.90;37.90;;;;;;112762;1242;46940;-64
2023/01/24 11:41:15;;;;;;;;;25.75;23.50;24.00;37.90;;;;;;112770;1240;55796;-64
2023/01/24 11:44:23;;;;;;;;;26.25;24.00;24.00;37.90;;;;;;112770;1243;56202;-64
2023/01/24 11:47:20;;;;;;;;;26.00;24.00;24.00;37.90;;;;;;112685;1243;48841;-64
2023/01/24 11:49:59;;;;;;;;;25.00;21.50;24.00;37.90;;;;;;112622;1241;49831;-64
2023/01/24 11:52:44;;;;;;;;;23.67;21.00;24.10;38.00;;;;;;112836;1243;44425;-64
2023/01/24 11:55:33;;;;;;;;;26.75;23.75;24.10;37.90;;;;;;112810;1243;55759;-64
2023/01/24 11:58:19;;;;;;;;;27.25;23.50;24.10;38.00;;;;;;112812;1239;55813;-65
2023/01/24 12:01:13;;;;;;;;;30.25;27.00;24.10;38.00;;;;;;112809;1243;50406;-64
2023/01/24 12:04:08;;;;;;;;;27.00;22.67;24.10;38.00;;;;;;112779;1243;50661;-65
2023/01/24 12:06:50;;;;;;;;;22.00;19.00;24.10;38.10;;;;;;112798;1243;47746;-65
2023/01/24 12:09:23;;;;;;;;;28.67;26.33;24.10;38.00;;;;;;112797;1243;55320;-63
2023/01/24 12:12:19;;;;;;;;;25.25;20.25;24.10;38.10;;;;;;112800;1243;56820;-63
2023/01/24 12:14:48;;;;;;;;;28.00;26.00;24.20;38.10;;;;;;112810;1243;49284;-64
2023/01/24 12:17:24;;;;;;;;;25.50;20.50;24.20;38.10;;;;;;112811;1243;49799;-64
2023/01/24 12:20:09;;;;;;;;;23.00;21.25;24.20;38.10;;;;;;112666;1240;45967;-64
2023/01/24 12:22:37;;;;;;;;;26.00;23.25;24.20;38.30;;;;;;112805;1242;56924;-63
2023/01/24 12:25:34;;;;;;;;;25.25;23.75;24.30;38.20;;;;;;112823;1239;55585;-64
2023/01/24 12:28:05;;;;;;;;;29.00;25.25;24.30;38.20;;;;;;112772;1238;49051;-65
2023/01/24 12:30:41;;;;;;;;;23.25;21.75;24.30;38.20;;;;;;112793;1242;49555;-64
2023/01/24 12:33:13;;;;;;;;;29.25;24.75;24.40;38.30;;;;;;112794;1239;45071;-64
2023/01/24 12:35:45;;;;;;;;;29.75;24.00;24.40;38.30;;;;;;112782;1242;55766;-64
2023/01/24 12:38:21;;;;;;;;;27.25;23.00;24.40;38.20;;;;;;112809;1242;55657;-65
2023/01/24 12:41:07;;;;;;;;;26.00;22.00;24.40;38.20;;;;;;112776;1242;50406;-64
2023/01/24 12:43:37;;;;;;;;;26.25;21.75;24.40;38.20;;;;;;112759;1238;49822;-57
2023/01/24 12:46:10;;;;;;;;;24.50;21.75;24.40;38.30;;;;;;112761;1238;44774;-62
2023/01/24 12:48:48;;;;;;;;;31.50;23.50;24.40;38.30;;;;;;112785;1242;56906;-60
2023/01/24 12:51:21;;;;;;;;;25.00;22.00;24.40;38.40;;;;;;112781;1242;56485;-60
2023/01/24 12:54:22;;;;;;;;;28.00;24.50;24.40;38.50;;;;;;112774;1238;49234;-61
2023/01/24 12:57:17;;;;;;;;;27.50;22.50;24.40;38.50;;;;;;112745;1242;48860;-60
2023/01/24 12:59:44;;;;;;;;;25.00;23.00;24.40;38.40;;;;;;112784;1242;45593;-79
2023/01/24 13:02:32;;;;;;;;;27.50;23.50;24.40;38.40;;;;;;112746;1242;55767;-74
2023/01/24 13:05:17;;;;;;;;;26.75;25.75;24.40;38.40;;;;;;112780;1242;55922;-72
2023/01/24 13:08:02;;;;;;;;;29.00;24.00;;;;;;;;112769;1243;50692;-69
